Time;durP1;ratioP1;P1;durP2;ratioP2;P2;SDS_P1;SDS_P2;PMS_P1;PMS_P2;Temp;Humidity;BMP_temperature;BMP_pressure;BME280_temperature;BME280_humidity;BME280_pressure;Samples;Min_cycle;Max_cycle;Signal;HPM_P1;HPM_P2
2021/06/07 00:02:05;;;;;;;10.02;6.03;;;;;;;14.20;82.02;92890.16;5058443;28;20056;-93
2021/06/07 00:04:37;;;;;;;10.15;6.00;;;;;;;14.13;81.52;92879.25;5057331;28;20047;-92
2021/06/07 00:07:24;;;;;;;;;;;;;;;;;;;;;
2021/06/07 00:10:26;;;;;;;;;;;;;;;;;;;;;
2021/06/07 00:13:25;;;;;;;;;;;;;;;;;;;;;
2021/06/07 00:16:05;;;;;;;7.73;5.57;;;;;;;13.95;82.00;92870.44;5074764;28;20028;-92
2021/06/07 00:19:03;;;;;;;11.80;6.30;;;;;;;13.96;82.18;92879.91;5057312;28;20121;-93
2021/06/07 00:22:05;;;;;;;;;;;;;;;;;;;;;
2021/06/07 00:25:02;;;;;;;;;;;;;;;;;;;;;
2021/06/07 00:28:18;;;;;;;;;;;;;;;;;;;;;
2021/06/07 00:30:52;;;;;;;10.17;6.50;;;;;;;13.79;81.87;92875.25;5059098;28;20025;-93
2021/06/07 00:33:42;;;;;;;11.05;6.00;;;;;;;13.80;81.80;92868.13;5083504;28;20282;-92
2021/06/07 00:36:26;;;;;;;12.52;6.35;;;;;;;13.83;82.14;92878.09;5044387;28;20071;-93
2021/06/07 00:42:11;;;;;;;10.32;6.28;;;;;;;13.74;82.24;92867.47;5084843;28;20040;-93
2021/06/07 00:44:46;;;;;;;10.38;6.32;;;;;;;13.63;82.13;92859.03;5052540;28;20607;-94
2021/06/07 00:47:26;;;;;;;;;;;;;;;;;;;;;
2021/06/07 00:50:06;;;;;;;9.77;6.00;;;;;;;13.60;82.35;92856.19;5056908;28;20035;-93
2021/06/07 00:53:03;;;;;;;10.35;6.35;;;;;;;13.60;82.67;92850.94;5039320;28;20044;-92
2021/06/07 00:55:48;;;;;;;8.98;6.25;;;;;;;13.61;82.61;92860.41;5063221;28;20036;-94
2021/06/07 00:58:50;;;;;;;9.50;6.22;;;;;;;13.58;82.77;92859.13;5071414;28;20544;-92
2021/06/07 01:01:46;;;;;;;;;;;;;;;;;;;;;
2021/06/07 01:04:21;;;;;;;10.38;7.00;;;;;;;13.52;82.93;92855.06;5089649;28;20132;-92
2021/06/07 01:07:08;;;;;;;16.10;6.90;;;;;;;13.54;83.37;92850.28;5049713;28;20580;-92
2021/06/07 01:10:02;;;;;;;9.63;6.57;;;;;;;13.63;83.24;92874.03;5056299;28;20481;-93
2021/06/07 01:13:01;;;;;;;12.80;6.07;;;;;;;13.54;83.08;92866.06;5073013;28;20442;-93
2021/06/07 01:15:57;;;;;;;11.38;6.43;;;;;;;13.48;82.78;92862.72;5049400;28;20047;-93
2021/06/07 01:18:30;;;;;;;12.70;7.07;;;;;;;13.42;82.77;92853.41;5065604;28;20051;-93
2021/06/07 01:21:30;;;;;;;;;;;;;;;;;;;;;
2021/06/07 01:24:20;;;;;;;;;;;;;;;;;;;;;
2021/06/07 01:27:26;;;;;;;;;;;;;;;;;;;;;
2021/06/07 01:30:37;;;;;;;16.38;6.40;;;;;;;13.28;82.67;92853.44;5072197;28;20033;-94
2021/06/07 01:33:35;;;;;;;;;;;;;;;;;;;;;
2021/06/07 01:36:34;;;;;;;;;;;;;;;;;;;;;
2021/06/07 01:39:11;;;;;;;11.20;6.18;;;;;;;13.28;82.60;92863.94;5054896;28;20040;-93
2021/06/07 01:41:52;;;;;;;;;;;;;;;;;;;;;
2021/06/07 01:44:37;;;;;;;11.43;7.13;;;;;;;13.17;83.21;92852.03;5055438;28;20048;-93
2021/06/07 01:47:24;;;;;;;11.68;7.45;;;;;;;13.15;83.46;92848.13;5061906;28;20543;-93
2021/06/07 01:50:05;;;;;;;9.88;6.95;;;;;;;13.15;83.24;92851.56;5054865;28;20101;-93
2021/06/07 01:52:44;;;;;;;15.18;8.32;;;;;;;13.17;83.44;92849.41;5070214;28;20375;-94
2021/06/07 01:55:30;;;;;;;13.25;7.95;;;;;;;13.21;83.80;92857.47;5052487;28;20068;-93
2021/06/07 01:58:24;;;;;;;;;;;;;;;;;;;;;
2021/06/07 02:01:40;;;;;;;;;;;;;;;;;;;;;
2021/06/07 02:04:09;;;;;;;11.75;7.70;;;;;;;13.16;83.59;92854.97;5071809;28;20036;-93
2021/06/07 02:07:03;;;;;;;;;;;;;;;;;;;;;
2021/06/07 02:09:55;;;;;;;10.93;7.05;;;;;;;13.11;84.06;92853.19;5070304;28;21457;-93
2021/06/07 02:12:31;;;;;;;14.18;8.25;;;;;;;13.06;84.03;92846.19;5067593;28;20041;-93
2021/06/07 02:15:11;;;;;;;13.95;7.75;;;;;;;13.17;83.78;92859.13;5069747;28;20535;-93
2021/06/07 02:17:54;;;;;;;;;;;;;;;;;;;;;
2021/06/07 02:20:35;;;;;;;11.40;7.53;;;;;;;13.03;84.08;92843.38;5057013;28;20042;-93
2021/06/07 02:23:18;;;;;;;12.88;8.60;;;;;;;12.97;84.02;92841.91;5071614;28;20489;-93
2021/06/07 02:26:00;;;;;;;;;;;;;;;;;;;;;
2021/06/07 02:29:24;;;;;;;9.98;7.63;;;;;;;12.93;84.35;92849.59;5069763;28;20131;-94
2021/06/07 02:32:11;;;;;;;;;;;;;;;;;;;;;
2021/06/07 02:35:00;;;;;;;;;;;;;;;;;;;;;
2021/06/07 02:37:43;;;;;;;9.98;7.03;;;;;;;12.92;83.90;92855.91;5057292;28;20050;-93
2021/06/07 02:43:59;;;;;;;;;;;;;;;;;;;;;
2021/06/07 02:47:08;;;;;;;;;;;;;;;;;;;;;
2021/06/07 02:50:08;;;;;;;11.50;5.97;;;;;;;12.80;83.89;92837.22;5060475;28;20036;-93
2021/06/07 02:56:13;;;;;;;9.93;6.40;;;;;;;12.82;83.88;92853.47;5056927;28;20036;-94
2021/06/07 02:59:13;;;;;;;9.57;6.10;;;;;;;12.79;83.70;92840.91;5055749;28;20068;-94
2021/06/07 03:05:08;;;;;;;8.82;6.45;;;;;;;12.87;83.90;92859.41;5080641;28;20124;-93
2021/06/07 03:08:10;;;;;;;;;;;;;;;;;;;;;
2021/06/07 03:10:48;;;;;;;9.35;5.95;;;;;;;12.78;83.75;92845.38;5072124;28;20024;-94
2021/06/07 03:13:55;;;;;;;8.50;5.88;;;;;;;12.83;nan;92857.66;5089436;28;20042;-93
2021/06/07 03:16:28;;;;;;;10.35;6.20;;;;;;;12.76;83.86;92847.53;5044297;28;20043;-93
2021/06/07 03:19:06;;;;;;;7.82;5.90;;;;;;;12.72;83.89;92841.28;5088802;28;20047;-92
2021/06/07 03:21:38;;;;;;;8.32;5.35;;;;;;;12.72;83.53;92841.28;5053666;28;20041;-93
2021/06/07 03:24:31;;;;;;;8.90;4.75;;;;;;;12.69;83.42;92844.50;5041834;28;20371;-92
2021/06/07 03:27:18;;;;;;;11.30;4.93;;;;;;;12.77;82.97;92854.34;5069075;28;20036;-93
2021/06/07 03:30:06;;;;;;;10.07;4.68;;;;;;;12.63;82.89;92843.03;5094419;28;20241;-93
2021/06/07 03:32:52;;;;;;;9.55;4.38;;;;;;;12.63;83.42;92846.44;5054236;28;20039;-94
2021/06/07 03:42:53;;;;;;;;;;;;;;;;;;;;;
2021/06/07 03:49:33;;;;;;;;;;;;;;;;;;;;;
2021/06/07 03:52:41;;;;;;;;;;;;;;;;;;;;;
2021/06/07 03:55:53;;;;;;;7.65;4.22;;;;;;;12.61;82.48;92835.47;5059059;28;20037;-93
2021/06/07 03:59:11;;;;;;;;;;;;;;;;;;;;;
2021/06/07 04:02:23;;;;;;;;;;;;;;;;;;;;;
2021/06/07 04:05:18;;;;;;;;;;;;;;;;;;;;;
2021/06/07 04:08:02;;;;;;;9.60;5.35;;;;;;;12.73;83.15;92826.31;5089242;28;20115;-94
2021/06/07 04:13:47;;;;;;;;;;;;;;;;;;;;;
2021/06/07 04:16:55;;;;;;;9.45;6.00;;;;;;;12.98;83.38;92833.72;5069291;28;20055;-93
2021/06/07 04:19:40;;;;;;;10.23;6.15;;;;;;;13.12;83.77;92845.00;5052857;28;20039;-93
2021/06/07 04:22:29;;;;;;;;;;;;;;;;;;;;;
2021/06/07 04:25:07;;;;;;;13.55;6.28;;;;;;;13.31;83.37;92842.31;5073231;28;20054;-94
2021/06/07 04:31:25;;;;;;;;;;;;;;;;;;;;;
2021/06/07 04:34:40;;;;;;;8.55;5.80;;;;;;;13.69;82.21;92828.09;5070942;28;20043;-93
2021/06/07 04:37:42;;;;;;;;;;;;;;;;;;;;;
2021/06/07 04:40:50;;;;;;;;;;;;;;;;;;;;;
2021/06/07 04:43:31;;;;;;;6.70;3.95;;;;;;;14.05;80.75;92829.94;5074860;28;20037;-94
2021/06/07 04:46:48;;;;;;;6.55;4.13;;;;;;;14.13;80.47;92837.13;5077858;28;20037;-92
2021/06/07 04:49:22;;;;;;;10.07;6.93;;;;;;;14.22;79.91;92837.97;5096374;28;20067;-93
2021/06/07 04:52:01;;;;;;;10.70;6.60;;;;;;;14.25;80.11;92836.59;5073417;28;20032;-93
2021/06/07 04:58:27;;;;;;;7.50;5.40;;;;;;;14.42;80.10;92843.84;5078937;28;20037;-94
2021/06/07 05:01:44;;;;;;;;;;;;;;;;;;;;;
2021/06/07 05:04:30;;;;;;;;;;;;;;;;;;;;;
2021/06/07 05:07:12;;;;;;;8.18;4.97;;;;;;;14.47;80.01;92828.69;5051263;28;20047;-94
2021/06/07 05:10:15;;;;;;;7.30;4.45;;;;;;;14.61;79.76;92839.16;5070533;28;20025;-93
2021/06/07 05:12:58;;;;;;;9.60;4.07;;;;;;;14.59;79.26;92830.81;5040696;28;20091;-94
2021/06/07 05:15:40;;;;;;;6.53;3.60;;;;;;;14.64;78.84;92833.31;5050429;28;20067;-93
2021/06/07 05:18:44;;;;;;;8.57;3.42;;;;;;;14.69;78.58;92835.03;5055146;28;20049;-93
2021/06/07 05:21:35;;;;;;;;;;;;;;;;;;;;;
2021/06/07 05:24:21;;;;;;;;;;;;;;;;;;;;;
2021/06/07 05:27:18;;;;;;;5.05;3.33;;;;;;;14.91;77.47;92839.47;5084711;28;20095;-93
2021/06/07 05:38:59;;;;;;;6.40;3.10;;;;;;;15.66;74.49;92834.25;5061773;28;20078;-93
2021/06/07 05:41:30;;;;;;;6.82;3.00;;;;;;;16.02;73.61;92837.41;5048764;28;20476;-93
2021/06/07 05:44:32;;;;;;;6.63;2.80;;;;;;;17.02;70.56;92842.69;5061636;28;20513;-92
2021/06/07 05:47:21;;;;;;;;;;;;;;;;;;;;;
2021/06/07 05:50:41;;;;;;;5.63;2.20;;;;;;;19.48;59.82;92849.16;5081292;28;20029;-93
2021/06/07 05:53:32;;;;;;;;;;;;;;;;;;;;;
2021/06/07 05:59:21;;;;;;;5.60;2.45;;;;;;;24.75;46.96;92865.72;5071813;28;20093;-94
2021/06/07 06:02:09;;;;;;;4.95;2.00;;;;;;;26.62;40.44;92865.28;5056464;28;20047;-94
2021/06/07 06:05:10;;;;;;;;;;;;;;;;;;;;;
2021/06/07 06:08:09;;;;;;;;;;;;;;;;;;;;;
2021/06/07 06:11:19;;;;;;;;;;;;;;;;;;;;;
2021/06/07 06:13:53;;;;;;;3.78;2.03;;;;;;;30.55;30.21;92871.75;5074669;28;20045;-93
2021/06/07 06:17:20;;;;;;;;;;;;;;;;;;;;;
2021/06/07 06:19:52;;;;;;;;;;;;;;;;;;;;;
2021/06/07 06:22:34;;;;;;;7.25;3.58;;;;;;;28.81;36.60;92863.38;5052078;28;20372;-95
2021/06/07 06:25:29;;;;;;;6.78;3.92;;;;;;;28.90;36.40;92872.97;5067365;28;20033;-95
2021/06/07 06:28:26;;;;;;;11.60;3.78;;;;;;;26.67;40.95;92872.97;5044905;28;20517;-95
2021/06/07 06:30:56;;;;;;;6.55;3.60;;;;;;;27.84;38.45;92873.59;5062583;28;20041;-94
2021/06/07 06:36:32;;;;;;;5.80;3.17;;;;;;;27.06;39.84;92875.00;5088561;28;20328;-93
2021/06/07 06:39:37;;;;;;;;;;;;;;;;;;;;;
2021/06/07 06:42:55;;;;;;;9.35;3.75;;;;;;;22.76;50.54;92870.28;5051909;28;20043;-93
2021/06/07 06:45:57;;;;;;;5.60;3.67;;;;;;;20.78;57.35;92884.44;5051218;28;20091;-94
2021/06/07 06:48:58;;;;;;;8.00;3.97;;;;;;;20.68;58.50;92876.19;5051608;28;20045;-94
2021/06/07 06:54:23;;;;;;;7.13;3.88;;;;;;;18.66;65.81;92887.00;5940093;23;19930;-80
2021/06/07 06:56:50;;;;;;;7.05;4.32;;;;;;;18.93;65.00;92890.97;5017571;28;20046;-78
2021/06/07 06:59:15;;;;;;;9.40;4.20;;;;;;;18.95;65.78;92898.63;5014115;28;20061;-79
2021/06/07 07:01:41;;;;;;;10.65;4.10;;;;;;;18.27;66.30;92892.47;5007153;28;20038;-78
2021/06/07 07:04:06;;;;;;;8.00;3.75;;;;;;;18.58;66.06;92899.25;4987877;28;20037;-77
2021/06/07 07:06:32;;;;;;;8.50;4.20;;;;;;;18.54;66.11;92905.53;5010521;28;20395;-77
2021/06/07 07:08:58;;;;;;;6.45;3.83;;;;;;;18.77;63.86;92901.44;5010437;28;20058;-78
2021/06/07 07:11:23;;;;;;;7.05;4.18;;;;;;;18.66;66.86;92906.34;5010211;28;20033;-78
2021/06/07 07:13:49;;;;;;;8.95;4.47;;;;;;;18.31;67.48;92913.81;5011048;28;20036;-78
2021/06/07 07:16:14;;;;;;;10.35;4.20;;;;;;;18.40;66.90;92911.09;5010321;28;20053;-78
2021/06/07 07:18:40;;;;;;;9.35;4.82;;;;;;;18.70;65.44;92914.41;5011925;28;20104;-78
2021/06/07 07:21:06;;;;;;;8.68;4.80;;;;;;;18.39;66.54;92912.94;5012026;28;20041;-78
2021/06/07 07:23:33;;;;;;;5.75;3.90;;;;;;;18.74;64.76;92904.72;5011592;28;20072;-77
2021/06/07 07:25:59;;;;;;;8.38;3.70;;;;;;;19.18;64.73;92910.38;5010786;28;20037;-78
2021/06/07 07:28:25;;;;;;;7.38;2.90;;;;;;;18.92;59.14;92906.13;5011080;28;20036;-78
2021/06/07 07:30:51;;;;;;;6.60;3.42;;;;;;;19.10;64.01;92914.69;5011949;28;20045;-78
2021/06/07 07:33:17;;;;;;;9.43;3.65;;;;;;;19.31;62.97;92917.25;5015335;28;20030;-79
2021/06/07 07:35:43;;;;;;;8.13;3.35;;;;;;;19.21;61.96;92916.94;5016306;28;20403;-80
2021/06/07 07:38:09;;;;;;;6.53;3.10;;;;;;;19.85;60.10;92921.63;5017757;28;20038;-81
2021/06/07 07:40:35;;;;;;;11.25;3.55;;;;;;;19.79;61.37;92925.63;5001122;28;20534;-79
2021/06/07 07:43:01;;;;;;;7.38;3.55;;;;;;;18.72;64.33;92920.19;5016881;28;20503;-78
2021/06/07 07:45:28;;;;;;;7.82;3.65;;;;;;;19.23;61.42;92920.81;5015244;28;20061;-79
2021/06/07 07:47:56;;;;;;;7.45;3.45;;;;;;;19.09;62.53;92926.41;5014951;28;20032;-78
2021/06/07 07:50:22;;;;;;;5.97;3.75;;;;;;;19.27;63.14;92927.00;5013194;28;20515;-78
2021/06/07 07:52:49;;;;;;;7.45;3.90;;;;;;;19.74;62.37;92929.28;5012155;28;20043;-77
2021/06/07 07:55:22;;;;;;;7.75;4.20;;;;;;;19.67;62.45;92939.66;5011449;28;20052;-77
2021/06/07 07:57:53;;;;;;;6.70;3.47;;;;;;;19.67;62.30;92928.25;5013930;28;20052;-77
2021/06/07 08:00:22;;;;;;;8.95;3.15;;;;;;;19.56;59.11;92935.88;5015504;28;20036;-80
2021/06/07 08:02:48;;;;;;;6.75;3.30;;;;;;;19.64;59.79;92924.38;5017021;28;20058;-81
2021/06/07 08:05:13;;;;;;;6.35;3.38;;;;;;;19.53;59.05;92933.88;5022846;28;20042;-80
2021/06/07 08:07:40;;;;;;;7.65;3.50;;;;;;;19.79;59.49;92930.94;5021788;28;20029;-82
2021/06/07 08:10:07;;;;;;;6.55;2.97;;;;;;;19.71;60.03;92929.94;5021947;28;20057;-81
2021/06/07 08:12:33;;;;;;;4.72;3.13;;;;;;;19.86;59.12;92928.50;5019932;28;20075;-80
2021/06/07 08:14:59;;;;;;;6.28;3.67;;;;;;;19.29;61.83;92934.63;5022004;28;20029;-80
2021/06/07 08:17:25;;;;;;;5.60;3.50;;;;;;;19.46;60.40;92929.13;5021529;28;20061;-81
2021/06/07 08:19:51;;;;;;;8.65;3.70;;;;;;;19.61;60.39;92929.56;5003927;28;20038;-79
2021/06/07 08:22:19;;;;;;;8.05;3.47;;;;;;;19.74;60.17;92920.53;5021548;28;20383;-81
2021/06/07 08:24:45;;;;;;;9.15;3.30;;;;;;;19.70;60.94;92925.75;5004502;28;20077;-80
2021/06/07 08:27:11;;;;;;;6.55;3.08;;;;;;;20.06;58.71;92929.50;5022969;28;20025;-80
2021/06/07 08:29:36;;;;;;;4.78;2.97;;;;;;;19.53;59.76;92926.69;5023241;28;20030;-79
2021/06/07 08:32:03;;;;;;;6.80;3.10;;;;;;;19.78;59.19;92924.06;5024317;28;20025;-81
2021/06/07 08:34:29;;;;;;;7.53;2.85;;;;;;;19.78;59.29;92924.06;5024121;28;20034;-80
2021/06/07 08:36:54;;;;;;;5.35;2.40;;;;;;;19.90;57.20;92923.28;5023491;28;20475;-80
2021/06/07 08:39:20;;;;;;;4.57;2.70;;;;;;;19.55;59.57;92919.19;5022686;28;20443;-80
2021/06/07 08:41:46;;;;;;;5.88;2.70;;;;;;;20.26;56.06;92919.81;5023791;28;20032;-80
2021/06/07 08:44:12;;;;;;;9.20;2.85;;;;;;;20.26;56.30;92916.38;5023292;28;20042;-80
2021/06/07 08:46:39;;;;;;;4.57;2.30;;;;;;;19.95;56.34;92915.88;5023266;28;20490;-80
2021/06/07 08:49:04;;;;;;;5.13;2.72;;;;;;;19.93;59.20;92922.66;5023422;28;20060;-79
2021/06/07 08:51:30;;;;;;;4.60;2.60;;;;;;;19.91;58.29;92922.97;5023941;28;20029;-80
2021/06/07 08:53:56;;;;;;;4.10;2.13;;;;;;;19.84;55.63;92927.31;5019587;28;20044;-79
2021/06/07 08:56:21;;;;;;;7.55;2.90;;;;;;;20.23;57.31;92919.72;5013619;28;20041;-80
2021/06/07 08:58:48;;;;;;;4.30;2.33;;;;;;;20.44;55.43;92922.97;5003633;28;20552;-79
2021/06/07 09:01:14;;;;;;;4.60;2.20;;;;;;;20.41;55.24;92920.25;4996536;28;20064;-80
2021/06/07 09:03:40;;;;;;;6.00;2.10;;;;;;;20.31;53.48;92924.13;5014150;28;20038;-80
2021/06/07 09:06:06;;;;;;;9.23;2.28;;;;;;;20.22;54.36;92920.81;4996189;28;20040;-80
2021/06/07 09:08:36;;;;;;;4.13;2.10;;;;;;;19.83;54.75;92920.41;5014492;28;20091;-80
2021/06/07 09:11:10;;;;;;;4.65;2.33;;;;;;;19.75;57.04;92924.75;5014525;28;20116;-79
2021/06/07 09:13:37;;;;;;;4.95;2.25;;;;;;;20.35;54.37;92925.78;5015447;28;20045;-80
2021/06/07 09:16:03;;;;;;;4.57;1.90;;;;;;;20.41;52.38;92926.31;4997144;28;20026;-81
2021/06/07 09:18:35;;;;;;;6.13;2.40;;;;;;;19.28;56.83;92922.47;5013251;28;20040;-79
2021/06/07 09:21:04;;;;;;;5.28;2.15;;;;;;;19.74;57.47;92931.94;5013184;28;20022;-81
2021/06/07 09:23:47;;;;;;;5.15;2.10;;;;;;;20.15;55.40;92932.81;5015501;28;20060;-80
2021/06/07 09:26:25;;;;;;;;;;;;;;;20.08;57.50;92929.91;5013214;28;20025;-82
2021/06/07 09:28:54;;;;;;;3.40;1.80;;;;;;;19.94;52.47;92926.84;5012727;28;19918;-79
2021/06/07 09:31:28;;;;;;;4.90;2.00;;;;;;;19.70;56.78;92939.03;4996190;28;20028;-81
2021/06/07 09:33:53;;;;;;;5.25;2.50;;;;;;;19.75;56.21;92936.16;5021766;28;20049;-80
2021/06/07 09:36:28;;;;;;;4.38;2.42;;;;;;;19.60;56.19;92928.81;5014400;28;20030;-80
2021/06/07 09:39:00;;;;;;;4.70;2.30;;;;;;;19.62;57.29;92936.44;5012001;28;20034;-80
2021/06/07 09:41:33;;;;;;;4.93;2.47;;;;;;;19.82;57.84;92932.16;5013065;28;20029;-80
2021/06/07 09:44:03;;;;;;;5.70;2.15;;;;;;;19.28;56.89;92939.16;5008504;28;20049;-80
2021/06/07 09:46:31;;;;;;;3.35;1.80;;;;;;;19.47;53.06;92943.16;5002856;28;20376;-81
2021/06/07 09:49:07;;;;;;;3.50;2.10;;;;;;;19.57;57.34;92940.09;5001852;28;20053;-80
2021/06/07 09:51:33;;;;;;;3.67;1.98;;;;;;;19.82;55.72;92935.59;5011252;28;20034;-80
2021/06/07 09:53:59;;;;;;;5.63;2.78;;;;;;;19.81;56.37;92934.03;5011514;28;20034;-81
2021/06/07 09:56:26;;;;;;;6.15;2.70;;;;;;;19.29;59.03;92939.94;4996804;28;20042;-79
2021/06/07 09:58:52;;;;;;;7.38;2.75;;;;;;;19.24;60.80;92942.81;5012371;28;20504;-79
2021/06/07 10:01:21;;;;;;;7.20;2.78;;;;;;;19.08;61.20;92950.63;5013236;28;20067;-81
2021/06/07 10:03:55;;;;;;;8.52;3.10;;;;;;;19.44;59.60;92952.56;5013809;28;20026;-81
2021/06/07 10:06:35;;;;;;;5.88;2.80;;;;;;;19.26;61.30;92940.59;5000106;28;20041;-80
2021/06/07 10:09:04;;;;;;;5.72;2.70;;;;;;;19.09;62.14;92941.53;5009547;28;20093;-80
2021/06/07 10:11:33;;;;;;;7.45;3.40;;;;;;;19.17;61.67;92938.03;5014085;28;20459;-80
2021/06/07 10:14:21;;;;;;;7.00;3.08;;;;;;;18.94;61.58;92942.94;5014234;28;20034;-79
2021/06/07 10:17:00;;;;;;;6.13;3.08;;;;;;;18.78;63.26;92942.78;5013614;28;20042;-80
2021/06/07 10:19:34;;;;;;;6.68;3.05;;;;;;;18.92;63.33;92945.91;5014943;28;20395;-80
2021/06/07 10:22:01;;;;;;;7.60;3.30;;;;;;;19.16;64.07;92946.31;5015928;28;20127;-80
2021/06/07 10:24:27;;;;;;;5.28;2.58;;;;;;;19.66;61.99;92948.72;4997694;28;20048;-82
2021/06/07 10:26:53;;;;;;;6.75;2.80;;;;;;;19.95;61.02;92941.69;5013641;28;20149;-80
2021/06/07 10:29:19;;;;;;;5.18;2.75;;;;;;;20.23;60.38;92948.97;5013479;28;20045;-80
2021/06/07 10:31:46;;;;;;;6.55;2.80;;;;;;;20.30;61.52;92955.25;5017944;28;20042;-80
2021/06/07 10:34:12;;;;;;;5.63;2.97;;;;;;;20.37;62.12;92952.78;5022476;28;20034;-81
2021/06/07 10:36:42;;;;;;;6.53;2.80;;;;;;;20.38;62.51;92950.94;5024143;28;20030;-80
2021/06/07 10:39:22;;;;;;;4.43;2.85;;;;;;;20.58;61.65;92958.00;5005375;28;20045;-80
2021/06/07 10:41:57;;;;;;;4.07;2.65;;;;;;;20.56;61.22;92948.78;5006018;28;20030;-80
2021/06/07 10:44:39;;;;;;;5.50;3.33;;;;;;;20.56;60.84;92951.44;5005189;28;20069;-81
2021/06/07 10:47:08;;;;;;;5.00;3.20;;;;;;;20.44;61.20;92949.56;5002245;28;20046;-80
2021/06/07 10:49:42;;;;;;;6.05;3.45;;;;;;;19.49;63.70;92951.56;5004295;28;20026;-81
2021/06/07 10:52:10;;;;;;;5.70;3.08;;;;;;;20.25;61.22;92952.06;5021612;28;20026;-81
2021/06/07 10:54:40;;;;;;;6.00;3.20;;;;;;;20.55;60.44;92955.19;5020287;28;20061;-80
2021/06/07 10:57:25;;;;;;;8.43;3.47;;;;;;;20.99;59.24;92957.97;5021697;28;20038;-80
2021/06/07 10:59:53;;;;;;;7.43;3.13;;;;;;;21.22;59.22;92955.53;5019060;28;20041;-80
2021/06/07 11:02:20;;;;;;;5.18;3.20;;;;;;;21.15;58.44;92956.13;5016394;28;20483;-80
2021/06/07 11:05:08;;;;;;;8.90;3.90;;;;;;;20.68;59.76;92955.97;5021723;28;20030;-80
2021/06/07 11:07:35;;;;;;;6.55;3.90;;;;;;;20.35;61.25;92959.56;5021831;28;20037;-78
2021/06/07 11:10:20;;;;;;;7.32;4.13;;;;;;;20.88;58.57;92963.00;5023039;28;20586;-81
2021/06/07 11:12:58;;;;;;;6.78;3.78;;;;;;;21.26;58.16;92944.97;5007480;28;20515;-79
2021/06/07 11:15:27;;;;;;;7.70;4.05;;;;;;;21.36;57.99;92944.47;5023697;28;20084;-80
2021/06/07 11:18:20;;;;;;;8.07;3.88;;;;;;;21.37;57.40;92948.69;5026420;28;20022;-80
2021/06/07 11:20:46;;;;;;;7.28;4.22;;;;;;;21.13;57.87;92952.25;5016413;28;20036;-80
2021/06/07 11:23:29;;;;;;;7.78;4.57;;;;;;;21.20;57.07;92941.78;5024673;28;20022;-80
2021/06/07 11:25:58;;;;;;;7.00;4.88;;;;;;;21.23;56.45;92949.06;5006925;28;20037;-80
2021/06/07 11:28:30;;;;;;;6.78;4.22;;;;;;;21.45;56.60;92947.75;5021110;28;20053;-81
2021/06/07 11:30:56;;;;;;;9.20;4.30;;;;;;;21.70;56.25;92935.06;5024420;28;20029;-80
2021/06/07 11:33:22;;;;;;;6.88;3.97;;;;;;;21.87;56.65;92938.50;5027078;28;20430;-81
2021/06/07 11:35:48;;;;;;;9.02;4.07;;;;;;;20.98;59.71;92930.59;5025448;28;20098;-79
2021/06/07 11:38:35;;;;;;;7.50;3.45;;;;;;;21.55;56.57;92927.84;5025326;28;20024;-79
2021/06/07 11:41:05;;;;;;;6.85;4.50;;;;;;;21.18;56.00;92925.38;5033549;28;20038;-79
2021/06/07 11:43:46;;;;;;;6.38;4.38;;;;;;;21.19;56.27;92924.28;5024662;28;21065;-80
2021/06/07 11:46:30;;;;;;;6.55;4.05;;;;;;;21.07;57.02;92927.00;5025176;28;20038;-80
2021/06/07 11:49:12;;;;;;;5.97;4.00;;;;;;;21.32;56.72;92922.28;5024123;28;20038;-80
2021/06/07 11:51:38;;;;;;;;;;;;;;;21.41;56.70;92914.94;5024584;28;20091;-80
2021/06/07 11:54:26;;;;;;;7.38;3.60;;;;;;;21.46;56.24;92911.25;5021530;28;20358;-80
2021/06/07 11:57:03;;;;;;;6.25;3.50;;;;;;;21.53;57.70;92906.13;5039843;28;20041;-80
2021/06/07 11:59:35;;;;;;;8.43;4.40;;;;;;;21.78;57.66;92917.38;5023442;28;20120;-80
2021/06/07 12:02:09;;;;;;;8.43;3.90;;;;;;;21.75;58.70;92916.16;5023573;28;20488;-78
2021/06/07 12:04:35;;;;;;;8.05;4.50;;;;;;;21.87;57.00;92909.19;5023222;28;20058;-80
2021/06/07 12:07:05;;;;;;;8.20;4.68;;;;;;;21.98;56.45;92908.31;5008457;28;20586;-79
2021/06/07 12:09:32;;;;;;;8.57;3.90;;;;;;;22.05;56.57;92907.69;5024706;28;20065;-80
2021/06/07 12:11:58;;;;;;;7.82;3.58;;;;;;;21.97;55.02;92904.06;5024958;28;20064;-79
2021/06/07 12:14:39;;;;;;;7.25;3.75;;;;;;;21.75;56.05;92908.16;5024814;28;20065;-80
2021/06/07 12:17:17;;;;;;;8.17;3.97;;;;;;;21.57;54.79;92898.97;5022945;28;20042;-80
2021/06/07 12:19:45;;;;;;;6.60;3.67;;;;;;;21.61;55.77;92900.59;5008313;28;20335;-80
2021/06/07 12:22:26;;;;;;;8.63;4.20;;;;;;;21.78;55.96;92891.47;5026272;28;20034;-80
2021/06/07 12:25:16;;;;;;;5.93;3.50;;;;;;;21.92;56.20;92898.25;5023740;28;20037;-80
2021/06/07 12:30:27;;;;;;;6.70;3.20;;;;;;;22.36;56.45;92901.53;5023160;28;20147;-80
2021/06/07 12:32:54;;;;;;;4.97;2.83;;;;;;;22.50;54.55;92902.94;5021814;28;20034;-80
2021/06/07 12:35:21;;;;;;;5.80;3.05;;;;;;;22.63;54.76;92904.38;5022948;28;20096;-80
2021/06/07 12:38:00;;;;;;;4.18;2.45;;;;;;;22.77;53.59;92903.88;5021803;28;20238;-80
2021/06/07 12:40:30;;;;;;;3.95;2.50;;;;;;;22.80;51.44;92906.59;5022097;28;20042;-80
2021/06/07 12:42:59;;;;;;;6.47;2.90;;;;;;;22.55;52.07;92908.75;5019094;28;20041;-80
2021/06/07 12:45:32;;;;;;;6.45;2.60;;;;;;;22.61;54.53;92910.03;5020691;28;20514;-80
2021/06/07 12:48:14;;;;;;;5.43;2.67;;;;;;;22.28;54.40;92910.50;5023103;28;20442;-81
2021/06/07 12:51:02;;;;;;;6.13;2.70;;;;;;;22.21;55.67;92902.31;5023847;28;20037;-80
2021/06/07 12:53:30;;;;;;;16.42;3.22;;;;;;;21.92;55.67;92906.25;5021061;28;20034;-81
2021/06/07 12:56:02;;;;;;;5.55;2.70;;;;;;;21.42;57.76;92906.63;5017189;28;20069;-80
2021/06/07 12:58:29;;;;;;;5.38;2.50;;;;;;;21.65;57.51;92903.34;5004295;28;20037;-80
2021/06/07 13:01:05;;;;;;;4.78;2.05;;;;;;;21.88;57.29;92897.41;5021980;28;20230;-80
2021/06/07 13:03:36;;;;;;;2.97;1.70;;;;;;;21.89;54.39;92896.28;5021266;28;20068;-80
2021/06/07 13:06:02;;;;;;;3.00;1.63;;;;;;;21.95;54.08;92894.88;5020480;28;20428;-81
2021/06/07 13:08:28;;;;;;;4.15;1.90;;;;;;;22.04;54.06;92892.81;5022249;28;20123;-80
2021/06/07 13:11:02;;;;;;;4.78;2.10;;;;;;;22.12;53.99;92899.84;5021067;28;20079;-79
2021/06/07 13:13:29;;;;;;;5.20;2.30;;;;;;;21.90;51.77;92884.50;5020856;28;20484;-80
2021/06/07 13:16:02;;;;;;;5.45;2.45;;;;;;;21.35;54.84;92895.78;5020709;28;20093;-80
2021/06/07 13:18:28;;;;;;;4.90;2.40;;;;;;;20.89;58.18;92900.69;5016510;28;20116;-80
2021/06/07 13:21:06;;;;;;;5.40;2.95;;;;;;;20.17;59.93;92898.69;5018211;28;20483;-80
2021/06/07 13:23:39;;;;;;;6.35;2.97;;;;;;;19.41;63.60;92899.34;5019166;28;20025;-80
2021/06/07 13:26:30;;;;;;;5.68;2.83;;;;;;;19.46;61.35;92896.50;5017352;28;20037;-78
2021/06/07 13:29:15;;;;;;;5.55;2.78;;;;;;;19.16;64.65;92906.50;5006267;28;20120;-80
2021/06/07 13:31:50;;;;;;;7.20;2.70;;;;;;;19.36;63.16;92903.00;5016511;28;20503;-80
2021/06/07 13:34:16;;;;;;;5.22;2.80;;;;;;;19.32;62.58;92905.56;5017211;28;20042;-80
2021/06/07 13:36:42;;;;;;;4.90;2.60;;;;;;;19.45;61.57;92913.53;5018050;28;20022;-79
2021/06/07 13:39:08;;;;;;;5.47;2.78;;;;;;;19.49;61.56;92911.75;5018096;28;20046;-80
2021/06/07 13:41:34;;;;;;;4.82;2.70;;;;;;;19.19;63.91;92914.59;5018190;28;20523;-79
2021/06/07 13:44:00;;;;;;;5.07;2.90;;;;;;;19.33;64.24;92920.38;5033199;28;20052;-80
2021/06/07 13:46:26;;;;;;;5.47;3.00;;;;;;;18.99;64.03;92926.81;5015393;28;20108;-81
2021/06/07 13:48:53;;;;;;;5.55;2.72;;;;;;;19.04;63.78;92923.19;5014303;28;20049;-80
2021/06/07 13:51:34;;;;;;;8.60;2.28;;;;;;;18.88;63.22;92923.03;5015022;28;20034;-81
2021/06/07 13:54:08;;;;;;;2.88;1.60;;;;;;;18.73;59.06;92929.66;5011907;28;20120;-82
2021/06/07 13:56:35;;;;;;;3.15;1.70;;;;;;;18.81;61.91;92925.44;5018341;28;20070;-81
2021/06/07 13:59:01;;;;;;;3.30;1.67;;;;;;;18.21;60.60;92930.84;5015418;28;20045;-79
2021/06/07 14:01:34;;;;;;;4.28;1.80;;;;;;;18.42;60.77;92930.88;5013032;28;20038;-79
2021/06/07 14:04:02;;;;;;;3.28;1.65;;;;;;;18.59;60.62;92926.53;4994737;28;20069;-79
2021/06/07 14:06:32;;;;;;;2.70;1.50;;;;;;;18.49;59.51;92917.88;5000373;28;20082;-79
2021/06/07 14:08:59;;;;;;;3.75;1.50;;;;;;;18.57;60.43;92918.88;5015375;28;20066;-79
2021/06/07 14:11:27;;;;;;;2.60;1.50;;;;;;;18.70;60.97;92930.34;5011548;28;20124;-80
2021/06/07 14:13:54;;;;;;;3.92;1.60;;;;;;;18.47;59.67;92928.03;5012040;28;20115;-81
2021/06/07 14:16:22;;;;;;;3.20;1.75;;;;;;;18.34;63.13;92922.97;5015623;28;20022;-80
2021/06/07 14:18:48;;;;;;;3.00;1.60;;;;;;;18.35;62.15;92920.03;5015027;28;20065;-80
2021/06/07 14:21:22;;;;;;;6.35;2.38;;;;;;;18.51;65.55;92922.84;5013676;28;20085;-81
2021/06/07 14:26:32;;;;;;;4.50;2.58;;;;;;;17.38;70.35;92913.69;4998395;28;20026;-80
2021/06/07 14:28:57;;;;;;;4.70;2.45;;;;;;;17.62;70.79;92917.63;4997333;28;20398;-80
2021/06/07 14:31:23;;;;;;;5.80;2.80;;;;;;;17.67;69.85;92917.44;4997162;28;20045;-79